createdAt,value
2023-05-06T00:00:29.116Z,99.57
2023-05-06T00:02:57.523Z,99.05
2023-05-06T00:05:25.995Z,98.58
2023-05-06T00:07:54.487Z,97.89
2023-05-06T00:10:24.340Z,97.14
2023-05-06T00:12:52.740Z,96.25
2023-05-06T00:15:21.302Z,95.72
2023-05-06T00:17:49.745Z,95.16
2023-05-06T00:20:18.116Z,94.90
2023-05-06T00:22:46.400Z,95.91
2023-05-06T00:25:14.799Z,96.06
2023-05-06T00:27:44.523Z,96.34
2023-05-06T00:30:14.303Z,96.21
2023-05-06T00:32:42.708Z,96.40
2023-05-06T00:35:11.500Z,96.43
2023-05-06T00:37:39.948Z,95.99
2023-05-06T00:40:10.888Z,95.36
2023-05-06T00:42:39.382Z,94.72
2023-05-06T00:45:11.051Z,94.42
2023-05-06T00:47:39.659Z,94.76
2023-05-06T00:50:09.618Z,96.00
2023-05-06T00:52:38.160Z,97.46
2023-05-06T00:55:07.967Z,98.46
2023-05-06T00:57:36.610Z,99.92
2023-05-06T01:00:09.212Z,100.00
2023-05-06T01:02:46.528Z,99.62
2023-05-06T01:05:17.308Z,99.27
2023-05-06T01:07:53.885Z,98.79
2023-05-06T01:10:29.397Z,98.59
2023-05-06T01:13:06.865Z,98.33
2023-05-06T01:15:43.640Z,98.43
2023-05-06T01:18:17.146Z,98.22
2023-05-06T01:20:51.033Z,98.36
2023-05-06T01:23:21.478Z,98.39
2023-05-06T01:25:50.115Z,98.41
2023-05-06T01:28:18.809Z,98.62
2023-05-06T01:30:58.947Z,98.73
2023-05-06T01:33:38.408Z,98.67
2023-05-06T01:36:15.627Z,98.71
2023-05-06T01:38:52.785Z,98.81
2023-05-06T01:41:22.275Z,99.46
2023-05-06T01:43:51.490Z,99.38
2023-05-06T01:46:21.996Z,99.58
2023-05-06T01:48:55.242Z,99.62
2023-05-06T01:51:25.061Z,99.52
2023-05-06T01:53:54.815Z,99.35
2023-05-06T01:56:24.369Z,99.19
2023-05-06T01:58:52.891Z,99.02
2023-05-06T02:01:21.233Z,98.79
2023-05-06T02:03:49.844Z,98.33
2023-05-06T02:06:18.623Z,97.93
2023-05-06T02:08:47.028Z,98.05
2023-05-06T02:11:21.286Z,98.02
2023-05-06T02:13:51.650Z,97.89
2023-05-06T02:16:21.965Z,97.64
2023-05-06T02:18:51.360Z,97.57
2023-05-06T02:21:19.652Z,97.26
2023-05-06T02:23:48.031Z,97.14
2023-05-06T02:26:16.477Z,97.12
2023-05-06T02:28:46.155Z,96.95
2023-05-06T02:31:16.265Z,96.75
2023-05-06T02:33:46.343Z,96.71
2023-05-06T02:36:14.892Z,96.59
2023-05-06T02:38:43.216Z,96.33
2023-05-06T02:41:11.654Z,96.14
2023-05-06T02:43:40.007Z,96.05
2023-05-06T02:46:09.741Z,95.72
2023-05-06T02:48:38.074Z,95.56
2023-05-06T02:51:07.170Z,95.64
2023-05-06T02:53:35.937Z,95.50
2023-05-06T02:56:04.401Z,95.52
2023-05-06T02:58:32.659Z,95.45
2023-05-06T03:01:01.214Z,95.57
2023-05-06T03:03:30.922Z,95.65
2023-05-06T03:05:59.339Z,95.72
2023-05-06T03:08:27.825Z,95.72
2023-05-06T03:10:57.164Z,95.62
2023-05-06T03:13:25.826Z,95.53
2023-05-06T03:15:54.954Z,95.45
2023-05-06T03:18:23.680Z,95.30
2023-05-06T03:20:53.856Z,95.34
2023-05-06T03:23:22.269Z,95.26
2023-05-06T03:25:51.095Z,94.83
2023-05-06T03:28:20.944Z,94.92
2023-05-06T03:30:50.552Z,95.25
2023-05-06T03:33:18.850Z,94.96
2023-05-06T03:35:47.213Z,95.00
2023-05-06T03:38:17.013Z,94.95
2023-05-06T03:40:52.042Z,94.50
2023-05-06T03:43:20.540Z,94.09
2023-05-06T03:45:52.339Z,93.54
2023-05-06T03:48:20.767Z,93.58
2023-05-06T03:50:50.062Z,93.78
2023-05-06T03:53:20.608Z,94.03
2023-05-06T03:55:51.107Z,94.61
2023-05-06T03:58:19.583Z,94.13
2023-05-06T04:00:48.655Z,94.24
2023-05-06T04:03:17.126Z,94.22
2023-05-06T04:05:50.646Z,94.04
2023-05-06T04:08:23.728Z,94.31
2023-05-06T04:10:52.176Z,94.68
2023-05-06T04:13:29.586Z,94.82
2023-05-06T04:16:00.068Z,94.79
2023-05-06T04:18:35.261Z,94.52
2023-05-06T04:21:08.403Z,94.31
2023-05-06T04:23:41.533Z,94.35
2023-05-06T04:26:12.012Z,94.50
2023-05-06T04:28:42.845Z,94.53
2023-05-06T04:31:14.595Z,94.20
2023-05-06T04:33:48.133Z,94.10
2023-05-06T04:36:20.205Z,93.92
2023-05-06T04:38:59.439Z,93.88
2023-05-06T04:41:31.262Z,94.06
2023-05-06T04:44:00.384Z,94.03
2023-05-06T04:46:29.513Z,93.78
2023-05-06T04:48:58.462Z,94.15
2023-05-06T04:51:27.618Z,93.90
2023-05-06T04:53:56.103Z,93.95
2023-05-06T04:56:26.124Z,93.97
2023-05-06T04:58:54.652Z,93.82
2023-05-06T05:01:24.637Z,93.36
2023-05-06T05:03:53.060Z,93.28
2023-05-06T05:06:22.888Z,93.28
2023-05-06T05:08:51.212Z,93.88
2023-05-06T05:11:20.250Z,95.75
2023-05-06T05:13:50.062Z,95.99
2023-05-06T05:16:18.542Z,95.66
2023-05-06T05:18:48.248Z,95.41
2023-05-06T05:21:22.009Z,95.04
2023-05-06T05:23:50.501Z,94.90
2023-05-06T05:26:18.996Z,94.73
2023-05-06T05:28:49.952Z,94.26
2023-05-06T05:31:18.442Z,93.97
2023-05-06T05:33:47.777Z,93.94
2023-05-06T05:36:19.720Z,94.17
2023-05-06T05:38:51.041Z,94.88
2023-05-06T05:41:20.464Z,94.34
2023-05-06T05:43:50.440Z,94.02
2023-05-06T05:46:18.779Z,94.28
2023-05-06T05:48:49.338Z,93.94
2023-05-06T05:51:19.463Z,94.89
2023-05-06T05:53:47.980Z,98.13
2023-05-06T05:56:17.199Z,99.46
2023-05-06T05:58:47.673Z,100.00
2023-05-06T06:01:17.743Z,100.00
2023-05-06T06:03:47.002Z,100.00
2023-05-06T06:06:15.569Z,100.00
2023-05-06T06:08:44.574Z,100.00
2023-05-06T06:11:14.067Z,100.00
2023-05-06T06:13:43.319Z,99.40
2023-05-06T06:16:13.037Z,98.74
2023-05-06T06:18:43.443Z,97.97
2023-05-06T06:21:11.859Z,97.60
2023-05-06T06:23:40.898Z,97.20
2023-05-06T06:26:11.627Z,96.31
2023-05-06T06:28:41.860Z,95.04
2023-05-06T06:31:10.379Z,94.69
2023-05-06T06:33:38.741Z,94.05
2023-05-06T06:36:09.844Z,92.87
2023-05-06T06:38:38.180Z,91.98
2023-05-06T06:41:06.695Z,90.66
2023-05-06T06:43:35.018Z,89.62
2023-05-06T06:46:08.948Z,88.32
2023-05-06T06:48:37.326Z,87.39
2023-05-06T06:51:06.744Z,86.26
2023-05-06T06:53:36.940Z,85.52
2023-05-06T06:56:05.737Z,84.81
2023-05-06T06:58:34.991Z,83.74
2023-05-06T07:01:03.380Z,83.46
2023-05-06T07:03:31.742Z,82.31
2023-05-06T07:06:00.248Z,82.09
2023-05-06T07:08:28.493Z,82.22
2023-05-06T07:10:58.328Z,80.83
2023-05-06T07:13:26.850Z,80.58
2023-05-06T07:15:55.455Z,80.30
2023-05-06T07:18:24.113Z,80.49
2023-05-06T07:20:52.476Z,78.81
2023-05-06T07:23:20.964Z,76.71
2023-05-06T07:25:49.835Z,77.51
2023-05-06T07:28:21.181Z,77.56
2023-05-06T07:30:51.490Z,75.79
2023-05-06T07:33:20.030Z,74.91
2023-05-06T07:35:48.536Z,75.27
2023-05-06T07:38:16.772Z,75.80
2023-05-06T07:40:45.038Z,74.49
2023-05-06T07:43:13.358Z,78.56
2023-05-06T07:45:43.129Z,77.34
2023-05-06T07:48:11.542Z,75.48
2023-05-06T07:50:39.977Z,75.28
2023-05-06T07:53:08.412Z,76.88
2023-05-06T07:55:38.094Z,79.34
2023-05-06T07:58:06.779Z,79.41
2023-05-06T08:00:35.455Z,78.78
2023-05-06T08:03:05.463Z,78.16
2023-05-06T08:05:34.105Z,79.09
2023-05-06T08:08:02.508Z,78.63
2023-05-06T08:10:31.008Z,79.89
2023-05-06T08:12:59.430Z,79.67
2023-05-06T08:15:28.282Z,79.15
2023-05-06T08:18:00.337Z,79.02
2023-05-06T08:20:37.125Z,79.94
2023-05-06T08:23:05.462Z,80.90
2023-05-06T08:25:33.898Z,82.42
2023-05-06T08:28:02.332Z,83.32
2023-05-06T08:30:30.948Z,81.31
2023-05-06T08:32:59.276Z,77.74
2023-05-06T08:35:27.819Z,77.39
2023-05-06T08:37:57.502Z,77.72
2023-05-06T08:40:29.405Z,75.07
2023-05-06T08:43:01.050Z,73.92
2023-05-06T08:45:30.308Z,75.03
2023-05-06T08:47:58.767Z,76.85
2023-05-06T08:50:27.434Z,76.16
2023-05-06T08:52:57.457Z,75.14
2023-05-06T08:55:27.818Z,74.04
2023-05-06T08:57:57.364Z,72.73
2023-05-06T09:00:26.257Z,72.88
2023-05-06T09:02:54.720Z,72.50
2023-05-06T09:05:23.461Z,72.91
2023-05-06T09:07:52.689Z,72.17
2023-05-06T09:10:22.523Z,71.54
2023-05-06T09:12:51.354Z,71.50
2023-05-06T09:15:25.238Z,70.07
2023-05-06T09:17:54.264Z,69.71
2023-05-06T09:20:22.584Z,70.19
2023-05-06T09:22:50.928Z,69.37
2023-05-06T09:25:19.563Z,67.86
2023-05-06T09:27:49.296Z,66.67
2023-05-06T09:30:17.665Z,69.76
2023-05-06T09:32:49.697Z,70.44
2023-05-06T09:35:18.060Z,68.32
2023-05-06T09:37:46.575Z,69.45
2023-05-06T09:40:15.625Z,67.69
2023-05-06T09:42:45.333Z,67.77
2023-05-06T09:45:18.126Z,65.81
2023-05-06T09:47:49.521Z,67.98
2023-05-06T09:50:18.032Z,69.16
2023-05-06T09:52:46.947Z,71.66
2023-05-06T09:55:16.385Z,69.65
2023-05-06T09:57:45.825Z,70.03
2023-05-06T10:00:17.098Z,70.96
2023-05-06T10:02:48.046Z,69.91
2023-05-06T10:05:17.993Z,67.27
2023-05-06T10:07:49.771Z,66.56
2023-05-06T10:10:18.402Z,63.84
2023-05-06T10:12:48.196Z,62.47
2023-05-06T10:15:18.152Z,62.93
2023-05-06T10:17:48.956Z,63.06
2023-05-06T10:20:18.645Z,63.73
2023-05-06T10:23:00.256Z,61.96
2023-05-06T10:25:36.676Z,60.37
2023-05-06T10:28:09.211Z,60.11
2023-05-06T10:30:46.378Z,60.49
2023-05-06T10:33:16.867Z,61.43
2023-05-06T10:35:55.058Z,59.63
2023-05-06T10:38:28.891Z,59.02
2023-05-06T10:40:58.068Z,60.69
2023-05-06T10:43:30.317Z,63.93
2023-05-06T10:46:06.731Z,64.64
2023-05-06T10:48:35.829Z,62.69
2023-05-06T10:51:29.238Z,63.44
2023-05-06T10:54:07.746Z,61.65
2023-05-06T10:56:38.662Z,63.28
2023-05-06T10:59:11.316Z,63.01
2023-05-06T11:01:43.769Z,61.88
2023-05-06T11:04:13.960Z,62.93
2023-05-06T11:06:44.603Z,65.43
2023-05-06T11:09:20.637Z,62.59
2023-05-06T11:12:02.083Z,61.61
2023-05-06T11:14:34.813Z,62.78
2023-05-06T11:17:06.740Z,62.96
2023-05-06T11:19:36.374Z,60.98
2023-05-06T11:22:06.768Z,60.79
2023-05-06T11:24:42.424Z,63.39
2023-05-06T11:27:12.541Z,62.86
2023-05-06T11:29:40.957Z,62.16
2023-05-06T11:32:27.108Z,62.63
2023-05-06T11:34:57.553Z,63.63
2023-05-06T11:37:27.383Z,63.82
2023-05-06T11:39:55.872Z,65.15
2023-05-06T11:42:29.038Z,65.56
2023-05-06T11:45:01.688Z,66.52
2023-05-06T11:47:31.518Z,66.55
2023-05-06T11:50:03.074Z,65.34
2023-05-06T11:52:32.302Z,64.54
2023-05-06T11:55:00.633Z,65.17
2023-05-06T11:57:29.019Z,66.47
2023-05-06T11:59:57.716Z,65.32
2023-05-06T12:02:26.079Z,62.13
2023-05-06T12:04:56.546Z,61.85
2023-05-06T12:07:25.135Z,61.35
2023-05-06T12:09:57.461Z,61.67
2023-05-06T12:12:27.349Z,60.67
2023-05-06T12:14:55.844Z,60.96
2023-05-06T12:17:24.570Z,60.35
2023-05-06T12:19:53.289Z,60.27
2023-05-06T12:22:24.861Z,60.63
2023-05-06T12:24:53.483Z,59.77
2023-05-06T12:27:39.548Z,61.04
2023-05-06T12:30:11.392Z,60.42
2023-05-06T12:32:58.095Z,60.23
2023-05-06T12:35:27.900Z,59.95
2023-05-06T12:37:58.232Z,59.66
2023-05-06T12:40:26.639Z,58.97
2023-05-06T12:42:56.091Z,59.22
2023-05-06T12:45:25.597Z,58.82
2023-05-06T12:47:54.809Z,56.78
2023-05-06T12:50:34.547Z,56.14
2023-05-06T12:53:05.645Z,54.97
2023-05-06T12:55:34.679Z,55.79
2023-05-06T12:58:03.692Z,54.05
2023-05-06T13:00:32.217Z,55.66
2023-05-06T13:03:00.665Z,55.54
2023-05-06T13:05:29.212Z,55.21
2023-05-06T13:07:57.493Z,55.26
2023-05-06T13:10:27.417Z,56.05
2023-05-06T13:12:55.916Z,56.13
2023-05-06T13:15:25.275Z,57.05
2023-05-06T13:17:53.775Z,57.39
2023-05-06T13:20:22.138Z,57.00
2023-05-06T13:22:54.681Z,55.87
2023-05-06T13:25:24.091Z,56.59
2023-05-06T13:27:54.687Z,56.05
2023-05-06T13:30:23.111Z,55.78
2023-05-06T13:32:51.910Z,55.39
2023-05-06T13:35:20.450Z,55.05
2023-05-06T13:37:48.714Z,55.70
2023-05-06T13:40:17.411Z,55.56
2023-05-06T13:42:46.244Z,56.56
2023-05-06T13:45:16.119Z,56.66
2023-05-06T13:47:44.589Z,56.05
2023-05-06T13:50:13.087Z,56.00
2023-05-06T13:52:41.758Z,55.65
2023-05-06T13:55:11.134Z,55.40
2023-05-06T13:57:39.772Z,54.98
2023-05-06T14:00:11.051Z,54.76
2023-05-06T14:02:40.793Z,55.69
2023-05-06T14:05:09.924Z,55.77
2023-05-06T14:07:40.404Z,55.81
2023-05-06T14:10:10.864Z,56.70
2023-05-06T14:12:39.703Z,56.29
2023-05-06T14:15:09.096Z,55.79
2023-05-06T14:17:41.854Z,55.10
2023-05-06T14:20:11.463Z,54.65
2023-05-06T14:22:42.174Z,54.16
2023-05-06T14:25:11.661Z,54.86
2023-05-06T14:27:40.332Z,55.60
2023-05-06T14:30:10.193Z,55.36
2023-05-06T14:32:38.651Z,54.18
2023-05-06T14:35:10.793Z,54.35
2023-05-06T14:37:39.478Z,54.19
2023-05-06T14:40:10.410Z,53.63
2023-05-06T14:42:39.101Z,53.42
2023-05-06T14:45:09.443Z,52.14
2023-05-06T14:47:38.242Z,51.48
2023-05-06T14:50:10.633Z,50.43
2023-05-06T14:52:40.037Z,50.20
2023-05-06T14:55:10.635Z,50.32
2023-05-06T14:57:39.439Z,50.73
2023-05-06T15:00:10.276Z,51.33
2023-05-06T15:02:40.935Z,51.83
2023-05-06T15:05:12.085Z,52.14
2023-05-06T15:07:41.104Z,51.28
2023-05-06T15:10:10.411Z,51.34
2023-05-06T15:12:38.830Z,52.29
2023-05-06T15:15:09.688Z,51.94
2023-05-06T15:17:39.478Z,53.01
2023-05-06T15:20:11.130Z,54.04
2023-05-06T15:22:39.791Z,55.20
2023-05-06T15:25:16.688Z,54.17
2023-05-06T15:27:51.175Z,53.44
2023-05-06T15:30:20.247Z,53.22
2023-05-06T15:32:49.175Z,53.28
2023-05-06T15:35:18.985Z,54.05
2023-05-06T15:37:47.339Z,54.02
2023-05-06T15:40:15.848Z,54.16
2023-05-06T15:42:44.220Z,53.82
2023-05-06T15:45:13.735Z,53.38
2023-05-06T15:47:42.260Z,53.35
2023-05-06T15:50:24.731Z,53.93
2023-05-06T15:53:02.477Z,54.44
2023-05-06T15:55:35.127Z,54.53
2023-05-06T15:58:12.086Z,54.26
2023-05-06T16:00:40.424Z,54.74
2023-05-06T16:03:11.607Z,54.75
2023-05-06T16:05:40.986Z,54.61
2023-05-06T16:08:11.036Z,54.99
2023-05-06T16:10:39.421Z,55.77
2023-05-06T16:13:07.862Z,55.77
2023-05-06T16:15:36.478Z,56.36
2023-05-06T16:18:05.115Z,57.14
2023-05-06T16:20:34.313Z,59.07
2023-05-06T16:23:02.888Z,61.44
2023-05-06T16:25:32.641Z,63.81
2023-05-06T16:28:01.098Z,65.72
2023-05-06T16:30:29.569Z,67.84
2023-05-06T16:32:58.080Z,70.44
2023-05-06T16:35:26.797Z,72.67
2023-05-06T16:37:55.286Z,74.07
2023-05-06T16:40:23.899Z,74.98
2023-05-06T16:42:53.776Z,75.90
2023-05-06T16:45:22.159Z,76.28
2023-05-06T16:47:50.544Z,76.10
2023-05-06T16:50:19.067Z,76.47
2023-05-06T16:52:47.870Z,76.67
2023-05-06T16:55:16.464Z,76.48
2023-05-06T16:57:44.898Z,76.22
2023-05-06T17:00:16.725Z,75.82
2023-05-06T17:02:45.376Z,76.41
2023-05-06T17:05:14.071Z,76.72
2023-05-06T17:07:42.440Z,76.75
2023-05-06T17:10:12.281Z,77.40
2023-05-06T17:12:41.679Z,78.38
2023-05-06T17:15:11.215Z,77.78
2023-05-06T17:17:41.131Z,78.45
2023-05-06T17:20:11.022Z,77.44
2023-05-06T17:22:39.853Z,76.46
2023-05-06T17:25:09.585Z,76.67
2023-05-06T17:27:37.965Z,76.84
2023-05-06T17:30:09.619Z,77.79
2023-05-06T17:32:38.330Z,78.30
2023-05-06T17:35:09.528Z,79.83
2023-05-06T17:37:38.155Z,80.84
2023-05-06T17:40:08.448Z,81.57
2023-05-06T17:42:36.777Z,82.96
2023-05-06T17:45:06.281Z,84.05
2023-05-06T17:47:35.981Z,84.00
2023-05-06T17:50:04.773Z,84.09
2023-05-06T17:52:34.487Z,83.89
2023-05-06T17:55:14.753Z,83.76
2023-05-06T17:57:44.389Z,83.52
2023-05-06T18:00:14.442Z,83.39
2023-05-06T18:02:43.874Z,83.89
2023-05-06T18:05:13.512Z,83.31
2023-05-06T18:07:43.437Z,82.70
2023-05-06T18:10:12.756Z,81.55
2023-05-06T18:12:41.403Z,82.35
2023-05-06T18:15:11.355Z,82.50
2023-05-06T18:17:40.072Z,83.11
2023-05-06T18:20:10.181Z,83.77
2023-05-06T18:22:39.089Z,84.47
2023-05-06T18:25:10.219Z,85.10
2023-05-06T18:27:38.720Z,84.55
2023-05-06T18:30:08.770Z,83.62
2023-05-06T18:32:37.536Z,83.56
2023-05-06T18:35:06.591Z,86.21
2023-05-06T18:37:35.013Z,89.49
2023-05-06T18:40:04.009Z,92.99
2023-05-06T18:42:34.666Z,94.32
2023-05-06T18:45:06.967Z,93.85
2023-05-06T18:47:37.010Z,93.12
2023-05-06T18:50:06.099Z,94.98
2023-05-06T18:52:35.976Z,95.45
2023-05-06T18:55:05.024Z,95.41
2023-05-06T18:57:34.679Z,94.45
2023-05-06T19:00:04.823Z,94.29
2023-05-06T19:02:33.224Z,93.95
2023-05-06T19:05:01.557Z,93.52
2023-05-06T19:07:29.990Z,93.44
2023-05-06T19:09:58.562Z,93.12
2023-05-06T19:12:27.238Z,92.55
2023-05-06T19:14:56.898Z,92.04
2023-05-06T19:17:25.368Z,91.73
2023-05-06T19:19:53.732Z,91.34
2023-05-06T19:22:22.034Z,90.94
2023-05-06T19:24:50.386Z,90.84
2023-05-06T19:27:18.705Z,90.80
2023-05-06T19:29:48.269Z,90.61
2023-05-06T19:32:18.233Z,90.34
2023-05-06T19:34:46.665Z,89.94
2023-05-06T19:37:15.014Z,89.97
2023-05-06T19:39:43.755Z,89.85
2023-05-06T19:42:12.488Z,89.97
2023-05-06T19:44:40.936Z,89.85
2023-05-06T19:47:09.545Z,90.02
2023-05-06T19:49:39.215Z,89.96
2023-05-06T19:52:07.583Z,89.97
2023-05-06T19:54:35.877Z,89.89
2023-05-06T19:57:04.320Z,89.91
2023-05-06T19:59:32.714Z,89.90
2023-05-06T20:02:01.799Z,90.20
2023-05-06T20:04:30.382Z,90.57
2023-05-06T20:07:00.224Z,90.67
2023-05-06T20:09:28.727Z,90.28
2023-05-06T20:11:57.136Z,90.04
2023-05-06T20:14:25.609Z,90.01
2023-05-06T20:16:54.121Z,89.88
2023-05-06T20:19:23.761Z,89.64
2023-05-06T20:21:52.347Z,89.26
2023-05-06T20:24:23.762Z,89.35
2023-05-06T20:26:52.418Z,89.21
2023-05-06T20:29:20.728Z,89.18
2023-05-06T20:31:49.417Z,89.32
2023-05-06T20:34:19.154Z,89.17
2023-05-06T20:36:47.693Z,88.92
2023-05-06T20:39:16.043Z,88.95
2023-05-06T20:41:45.968Z,88.88
2023-05-06T20:44:14.432Z,88.47
2023-05-06T20:46:42.805Z,87.80
2023-05-06T20:49:11.773Z,88.02
2023-05-06T20:51:40.262Z,88.31
2023-05-06T20:54:08.855Z,87.81
2023-05-06T20:56:37.324Z,87.48
2023-05-06T20:59:07.027Z,87.32
2023-05-06T21:01:38.517Z,87.04
2023-05-06T21:04:07.343Z,86.77
2023-05-06T21:06:35.770Z,86.90
2023-05-06T21:09:04.267Z,87.04
2023-05-06T21:11:32.552Z,87.04
2023-05-06T21:14:01.014Z,86.90
2023-05-06T21:16:30.768Z,86.94
2023-05-06T21:18:59.288Z,87.03
2023-05-06T21:21:30.825Z,86.93
2023-05-06T21:23:59.234Z,86.65
2023-05-06T21:26:27.803Z,86.84
2023-05-06T21:28:56.192Z,88.45
2023-05-06T21:31:26.527Z,90.73
2023-05-06T21:33:58.341Z,93.30
2023-05-06T21:36:27.167Z,94.07
2023-05-06T21:39:03.786Z,93.97
2023-05-06T21:41:32.126Z,94.28
2023-05-06T21:44:00.692Z,93.81
2023-05-06T21:46:28.998Z,93.60
2023-05-06T21:48:58.959Z,93.70
2023-05-06T21:51:29.225Z,95.22
2023-05-06T21:53:57.676Z,96.35
2023-05-06T21:56:26.140Z,96.76
2023-05-06T21:58:55.753Z,97.64
2023-05-06T22:01:26.132Z,98.51
2023-05-06T22:03:54.638Z,99.35
2023-05-06T22:06:24.622Z,99.93
2023-05-06T22:08:53.331Z,100.00
2023-05-06T22:11:22.701Z,100.00
2023-05-06T22:13:50.931Z,100.00
2023-05-06T22:16:19.714Z,100.00
2023-05-06T22:18:48.060Z,100.00
2023-05-06T22:21:16.375Z,100.00
2023-05-06T22:23:46.175Z,100.00
2023-05-06T22:26:14.538Z,99.86
2023-05-06T22:28:42.898Z,100.00
2023-05-06T22:31:11.290Z,100.00
2023-05-06T22:33:39.727Z,100.00
2023-05-06T22:36:08.895Z,100.00
2023-05-06T22:38:37.430Z,100.00
2023-05-06T22:41:07.109Z,100.00
2023-05-06T22:43:35.417Z,100.00
2023-05-06T22:46:04.028Z,100.00
2023-05-06T22:48:32.458Z,100.00
2023-05-06T22:51:01.281Z,100.00
2023-05-06T22:53:29.545Z,100.00
2023-05-06T22:55:58.028Z,100.00
2023-05-06T22:58:27.704Z,100.00
2023-05-06T23:00:56.534Z,100.00
2023-05-06T23:03:24.957Z,100.00
2023-05-06T23:05:54.416Z,100.00
2023-05-06T23:08:23.630Z,100.00
2023-05-06T23:10:51.955Z,100.00
2023-05-06T23:13:20.444Z,100.00
2023-05-06T23:15:50.197Z,100.00
2023-05-06T23:18:19.028Z,100.00
2023-05-06T23:20:47.424Z,100.00
2023-05-06T23:23:15.773Z,100.00
2023-05-06T23:25:44.122Z,100.00
2023-05-06T23:28:12.547Z,100.00
2023-05-06T23:30:41.137Z,100.00
2023-05-06T23:33:10.911Z,100.00
2023-05-06T23:35:39.256Z,100.00
2023-05-06T23:38:07.694Z,100.00
2023-05-06T23:40:35.996Z,100.00
2023-05-06T23:43:07.052Z,100.00
2023-05-06T23:45:35.387Z,100.00
2023-05-06T23:48:03.996Z,100.00
2023-05-06T23:50:33.767Z,100.00
2023-05-06T23:53:02.096Z,100.00
2023-05-06T23:55:31.290Z,100.00
2023-05-06T23:57:59.614Z,100.00
